sensor_id;sensor_type;location;lat;lon;timestamp;temperature;humidity
7658;DHT22;8462;53.156;8.220;2022-08-20T00:01:17;22.50;82.90
7658;DHT22;8462;53.156;8.220;2022-08-20T00:03:43;22.60;82.80
7658;DHT22;8462;53.156;8.220;2022-08-20T00:06:12;22.60;82.70
7658;DHT22;8462;53.156;8.220;2022-08-20T00:08:42;22.60;82.10
7658;DHT22;8462;53.156;8.220;2022-08-20T00:11:12;22.60;82.50
7658;DHT22;8462;53.156;8.220;2022-08-20T00:13:41;22.60;82.70
7658;DHT22;8462;53.156;8.220;2022-08-20T00:16:10;22.50;83.20
7658;DHT22;8462;53.156;8.220;2022-08-20T00:18:40;22.50;83.10
7658;DHT22;8462;53.156;8.220;2022-08-20T00:21:11;22.50;83.60
7658;DHT22;8462;53.156;8.220;2022-08-20T00:23:39;22.50;83.70
7658;DHT22;8462;53.156;8.220;2022-08-20T00:26:08;22.50;84.00
7658;DHT22;8462;53.156;8.220;2022-08-20T00:28:36;22.50;84.00
7658;DHT22;8462;53.156;8.220;2022-08-20T00:31:04;22.60;83.70
7658;DHT22;8462;53.156;8.220;2022-08-20T00:33:32;22.60;83.60
7658;DHT22;8462;53.156;8.220;2022-08-20T00:35:59;22.50;83.40
7658;DHT22;8462;53.156;8.220;2022-08-20T00:38:31;22.60;83.50
7658;DHT22;8462;53.156;8.220;2022-08-20T00:40:58;22.60;83.40
7658;DHT22;8462;53.156;8.220;2022-08-20T00:43:31;22.50;83.30
7658;DHT22;8462;53.156;8.220;2022-08-20T00:45:59;22.60;82.90
7658;DHT22;8462;53.156;8.220;2022-08-20T00:48:29;22.60;82.50
7658;DHT22;8462;53.156;8.220;2022-08-20T00:51:04;22.60;82.30
7658;DHT22;8462;53.156;8.220;2022-08-20T00:53:32;22.60;82.10
7658;DHT22;8462;53.156;8.220;2022-08-20T00:56:00;22.60;82.00
7658;DHT22;8462;53.156;8.220;2022-08-20T00:58:28;22.60;81.90
7658;DHT22;8462;53.156;8.220;2022-08-20T01:00:56;22.60;82.20
7658;DHT22;8462;53.156;8.220;2022-08-20T01:03:23;22.60;83.00
7658;DHT22;8462;53.156;8.220;2022-08-20T01:05:50;22.50;84.10
7658;DHT22;8462;53.156;8.220;2022-08-20T01:08:20;22.50;84.00
7658;DHT22;8462;53.156;8.220;2022-08-20T01:10:50;22.50;83.70
7658;DHT22;8462;53.156;8.220;2022-08-20T01:13:34;22.50;83.60
7658;DHT22;8462;53.156;8.220;2022-08-20T01:16:05;22.50;83.80
7658;DHT22;8462;53.156;8.220;2022-08-20T01:18:35;22.50;84.30
7658;DHT22;8462;53.156;8.220;2022-08-20T01:21:05;22.50;84.60
7658;DHT22;8462;53.156;8.220;2022-08-20T01:23:39;22.50;85.10
7658;DHT22;8462;53.156;8.220;2022-08-20T01:26:12;22.40;85.00
7658;DHT22;8462;53.156;8.220;2022-08-20T01:28:42;22.40;85.20
7658;DHT22;8462;53.156;8.220;2022-08-20T01:31:12;22.40;85.20
7658;DHT22;8462;53.156;8.220;2022-08-20T01:33:40;22.40;85.00
7658;DHT22;8462;53.156;8.220;2022-08-20T01:36:07;22.40;84.70
7658;DHT22;8462;53.156;8.220;2022-08-20T01:38:36;22.40;84.60
7658;DHT22;8462;53.156;8.220;2022-08-20T01:41:15;22.40;84.40
7658;DHT22;8462;53.156;8.220;2022-08-20T01:43:48;22.40;84.40
7658;DHT22;8462;53.156;8.220;2022-08-20T01:46:23;22.40;84.40
7658;DHT22;8462;53.156;8.220;2022-08-20T01:48:51;22.40;84.20
7658;DHT22;8462;53.156;8.220;2022-08-20T01:51:22;22.30;83.80
7658;DHT22;8462;53.156;8.220;2022-08-20T01:53:52;22.30;84.20
7658;DHT22;8462;53.156;8.220;2022-08-20T01:56:22;22.30;84.10
7658;DHT22;8462;53.156;8.220;2022-08-20T01:58:52;22.30;84.30
7658;DHT22;8462;53.156;8.220;2022-08-20T02:01:23;22.30;84.60
7658;DHT22;8462;53.156;8.220;2022-08-20T02:03:51;22.30;84.60
7658;DHT22;8462;53.156;8.220;2022-08-20T02:06:19;22.30;84.80
7658;DHT22;8462;53.156;8.220;2022-08-20T02:08:52;22.30;84.80
7658;DHT22;8462;53.156;8.220;2022-08-20T02:11:21;22.30;85.00
7658;DHT22;8462;53.156;8.220;2022-08-20T02:13:49;22.30;85.10
7658;DHT22;8462;53.156;8.220;2022-08-20T02:16:19;22.30;85.20
7658;DHT22;8462;53.156;8.220;2022-08-20T02:18:48;22.30;85.90
7658;DHT22;8462;53.156;8.220;2022-08-20T02:21:19;22.30;85.00
7658;DHT22;8462;53.156;8.220;2022-08-20T02:23:46;22.30;85.10
7658;DHT22;8462;53.156;8.220;2022-08-20T02:26:14;22.30;85.00
7658;DHT22;8462;53.156;8.220;2022-08-20T02:28:45;22.30;84.80
7658;DHT22;8462;53.156;8.220;2022-08-20T02:31:14;22.20;85.00
7658;DHT22;8462;53.156;8.220;2022-08-20T02:33:41;22.20;84.70
7658;DHT22;8462;53.156;8.220;2022-08-20T02:36:09;22.20;85.20
7658;DHT22;8462;53.156;8.220;2022-08-20T02:38:37;22.20;85.20
7658;DHT22;8462;53.156;8.220;2022-08-20T02:41:04;22.20;85.40
7658;DHT22;8462;53.156;8.220;2022-08-20T02:43:31;22.20;85.20
7658;DHT22;8462;53.156;8.220;2022-08-20T02:46:00;22.20;85.20
7658;DHT22;8462;53.156;8.220;2022-08-20T02:48:27;22.20;85.40
7658;DHT22;8462;53.156;8.220;2022-08-20T02:50:56;22.20;85.10
7658;DHT22;8462;53.156;8.220;2022-08-20T02:53:26;22.20;84.70
7658;DHT22;8462;53.156;8.220;2022-08-20T02:55:53;22.20;85.10
7658;DHT22;8462;53.156;8.220;2022-08-20T02:58:21;22.20;84.90
7658;DHT22;8462;53.156;8.220;2022-08-20T03:00:49;22.20;85.90
7658;DHT22;8462;53.156;8.220;2022-08-20T03:03:18;22.10;85.00
7658;DHT22;8462;53.156;8.220;2022-08-20T03:05:49;22.10;85.10
7658;DHT22;8462;53.156;8.220;2022-08-20T03:08:16;22.10;85.20
7658;DHT22;8462;53.156;8.220;2022-08-20T03:10:45;22.10;85.50
7658;DHT22;8462;53.156;8.220;2022-08-20T03:13:13;22.10;85.40
7658;DHT22;8462;53.156;8.220;2022-08-20T03:15:43;22.10;85.70
7658;DHT22;8462;53.156;8.220;2022-08-20T03:18:12;22.10;85.50
7658;DHT22;8462;53.156;8.220;2022-08-20T03:20:41;22.10;85.50
7658;DHT22;8462;53.156;8.220;2022-08-20T03:23:07;22.10;85.20
7658;DHT22;8462;53.156;8.220;2022-08-20T03:25:34;22.10;85.40
7658;DHT22;8462;53.156;8.220;2022-08-20T03:28:02;22.10;85.60
7658;DHT22;8462;53.156;8.220;2022-08-20T03:30:29;22.10;85.70
7658;DHT22;8462;53.156;8.220;2022-08-20T03:32:57;22.10;85.60
7658;DHT22;8462;53.156;8.220;2022-08-20T03:35:26;22.10;85.60
7658;DHT22;8462;53.156;8.220;2022-08-20T03:37:55;22.00;86.00
7658;DHT22;8462;53.156;8.220;2022-08-20T03:40:25;22.00;86.00
7658;DHT22;8462;53.156;8.220;2022-08-20T03:42:52;22.00;86.20
7658;DHT22;8462;53.156;8.220;2022-08-20T03:45:21;22.00;85.90
7658;DHT22;8462;53.156;8.220;2022-08-20T03:47:52;22.00;85.90
7658;DHT22;8462;53.156;8.220;2022-08-20T03:50:21;21.90;86.00
7658;DHT22;8462;53.156;8.220;2022-08-20T03:52:50;22.00;86.40
7658;DHT22;8462;53.156;8.220;2022-08-20T03:55:19;22.00;86.30
7658;DHT22;8462;53.156;8.220;2022-08-20T03:57:48;22.00;86.20
7658;DHT22;8462;53.156;8.220;2022-08-20T04:00:24;22.00;86.30
7658;DHT22;8462;53.156;8.220;2022-08-20T04:02:52;22.00;86.50
7658;DHT22;8462;53.156;8.220;2022-08-20T04:05:19;22.00;86.00
7658;DHT22;8462;53.156;8.220;2022-08-20T04:07:46;22.00;86.60
7658;DHT22;8462;53.156;8.220;2022-08-20T04:10:13;21.90;85.90
7658;DHT22;8462;53.156;8.220;2022-08-20T04:12:41;21.90;85.70
7658;DHT22;8462;53.156;8.220;2022-08-20T04:15:11;21.90;85.90
7658;DHT22;8462;53.156;8.220;2022-08-20T04:17:40;21.90;86.30
7658;DHT22;8462;53.156;8.220;2022-08-20T04:20:09;21.90;86.50
7658;DHT22;8462;53.156;8.220;2022-08-20T04:22:36;21.90;86.60
7658;DHT22;8462;53.156;8.220;2022-08-20T04:25:05;21.90;86.40
7658;DHT22;8462;53.156;8.220;2022-08-20T04:27:34;21.90;86.50
7658;DHT22;8462;53.156;8.220;2022-08-20T04:30:04;21.80;86.50
7658;DHT22;8462;53.156;8.220;2022-08-20T04:32:32;21.80;86.60
7658;DHT22;8462;53.156;8.220;2022-08-20T04:35:01;21.80;86.40
7658;DHT22;8462;53.156;8.220;2022-08-20T04:37:28;21.80;86.40
7658;DHT22;8462;53.156;8.220;2022-08-20T04:39:55;21.80;86.30
7658;DHT22;8462;53.156;8.220;2022-08-20T04:42:40;21.80;86.50
7658;DHT22;8462;53.156;8.220;2022-08-20T04:45:09;21.80;87.40
7658;DHT22;8462;53.156;8.220;2022-08-20T04:47:36;21.70;86.80
7658;DHT22;8462;53.156;8.220;2022-08-20T04:50:06;21.80;86.60
7658;DHT22;8462;53.156;8.220;2022-08-20T04:52:34;21.80;86.50
7658;DHT22;8462;53.156;8.220;2022-08-20T04:55:02;21.80;86.40
7658;DHT22;8462;53.156;8.220;2022-08-20T04:57:30;21.80;86.40
7658;DHT22;8462;53.156;8.220;2022-08-20T04:59:56;21.80;86.30
7658;DHT22;8462;53.156;8.220;2022-08-20T05:02:25;21.80;86.00
7658;DHT22;8462;53.156;8.220;2022-08-20T05:04:54;21.80;86.20
7658;DHT22;8462;53.156;8.220;2022-08-20T05:07:20;21.80;86.20
7658;DHT22;8462;53.156;8.220;2022-08-20T05:09:47;21.80;86.10
7658;DHT22;8462;53.156;8.220;2022-08-20T05:12:14;21.80;86.30
7658;DHT22;8462;53.156;8.220;2022-08-20T05:14:44;21.80;86.20
7658;DHT22;8462;53.156;8.220;2022-08-20T05:17:14;21.80;86.10
7658;DHT22;8462;53.156;8.220;2022-08-20T05:19:43;21.90;86.10
7658;DHT22;8462;53.156;8.220;2022-08-20T05:22:11;21.90;85.90
7658;DHT22;8462;53.156;8.220;2022-08-20T05:24:37;21.90;85.70
7658;DHT22;8462;53.156;8.220;2022-08-20T05:27:05;21.90;85.30
7658;DHT22;8462;53.156;8.220;2022-08-20T05:29:32;21.90;85.10
7658;DHT22;8462;53.156;8.220;2022-08-20T05:31:59;21.90;85.00
7658;DHT22;8462;53.156;8.220;2022-08-20T05:34:27;21.80;84.70
7658;DHT22;8462;53.156;8.220;2022-08-20T05:36:55;21.80;84.90
7658;DHT22;8462;53.156;8.220;2022-08-20T05:39:23;21.80;84.60
7658;DHT22;8462;53.156;8.220;2022-08-20T05:41:49;21.80;84.60
7658;DHT22;8462;53.156;8.220;2022-08-20T05:44:17;21.80;84.30
7658;DHT22;8462;53.156;8.220;2022-08-20T05:46:46;21.80;84.30
7658;DHT22;8462;53.156;8.220;2022-08-20T05:49:14;21.90;84.00
7658;DHT22;8462;53.156;8.220;2022-08-20T05:51:42;21.80;83.70
7658;DHT22;8462;53.156;8.220;2022-08-20T05:54:11;21.90;83.30
7658;DHT22;8462;53.156;8.220;2022-08-20T05:56:38;21.90;83.50
7658;DHT22;8462;53.156;8.220;2022-08-20T05:59:07;21.90;83.10
7658;DHT22;8462;53.156;8.220;2022-08-20T06:01:36;21.90;82.90
7658;DHT22;8462;53.156;8.220;2022-08-20T06:04:04;21.90;82.70
7658;DHT22;8462;53.156;8.220;2022-08-20T06:06:48;22.00;82.40
7658;DHT22;8462;53.156;8.220;2022-08-20T06:09:19;22.00;82.10
7658;DHT22;8462;53.156;8.220;2022-08-20T06:11:46;22.00;81.80
7658;DHT22;8462;53.156;8.220;2022-08-20T06:14:13;22.00;81.50
7658;DHT22;8462;53.156;8.220;2022-08-20T06:16:41;22.10;81.40
7658;DHT22;8462;53.156;8.220;2022-08-20T06:19:08;22.10;81.10
7658;DHT22;8462;53.156;8.220;2022-08-20T06:21:35;22.10;80.80
7658;DHT22;8462;53.156;8.220;2022-08-20T06:24:03;22.10;80.20
7658;DHT22;8462;53.156;8.220;2022-08-20T06:26:34;22.20;80.30
7658;DHT22;8462;53.156;8.220;2022-08-20T06:29:01;22.20;80.10
7658;DHT22;8462;53.156;8.220;2022-08-20T06:31:29;22.20;80.00
7658;DHT22;8462;53.156;8.220;2022-08-20T06:33:56;22.20;79.30
7658;DHT22;8462;53.156;8.220;2022-08-20T06:36:22;22.30;79.60
7658;DHT22;8462;53.156;8.220;2022-08-20T06:38:50;22.30;79.70
7658;DHT22;8462;53.156;8.220;2022-08-20T06:41:19;22.40;78.70
7658;DHT22;8462;53.156;8.220;2022-08-20T06:43:47;22.40;78.10
7658;DHT22;8462;53.156;8.220;2022-08-20T06:46:19;22.50;78.20
7658;DHT22;8462;53.156;8.220;2022-08-20T06:48:48;22.60;77.90
7658;DHT22;8462;53.156;8.220;2022-08-20T06:51:16;22.80;77.60
7658;DHT22;8462;53.156;8.220;2022-08-20T06:53:42;22.90;76.60
7658;DHT22;8462;53.156;8.220;2022-08-20T06:56:09;22.90;75.40
7658;DHT22;8462;53.156;8.220;2022-08-20T06:58:37;22.90;74.90
7658;DHT22;8462;53.156;8.220;2022-08-20T07:01:06;23.00;74.40
7658;DHT22;8462;53.156;8.220;2022-08-20T07:03:33;23.20;74.70
7658;DHT22;8462;53.156;8.220;2022-08-20T07:06:02;23.40;73.70
7658;DHT22;8462;53.156;8.220;2022-08-20T07:08:29;23.50;72.80
7658;DHT22;8462;53.156;8.220;2022-08-20T07:10:56;23.70;71.70
7658;DHT22;8462;53.156;8.220;2022-08-20T07:13:24;23.90;71.30
7658;DHT22;8462;53.156;8.220;2022-08-20T07:15:51;24.20;70.90
7658;DHT22;8462;53.156;8.220;2022-08-20T07:18:19;24.50;70.00
7658;DHT22;8462;53.156;8.220;2022-08-20T07:20:47;24.70;68.00
7658;DHT22;8462;53.156;8.220;2022-08-20T07:23:14;24.90;67.90
7658;DHT22;8462;53.156;8.220;2022-08-20T07:25:42;25.20;67.80
7658;DHT22;8462;53.156;8.220;2022-08-20T07:28:13;25.40;67.40
7658;DHT22;8462;53.156;8.220;2022-08-20T07:30:41;25.60;65.70
7658;DHT22;8462;53.156;8.220;2022-08-20T07:33:28;25.80;65.20
7658;DHT22;8462;53.156;8.220;2022-08-20T07:35:55;25.70;63.60
7658;DHT22;8462;53.156;8.220;2022-08-20T07:38:23;25.50;64.00
7658;DHT22;8462;53.156;8.220;2022-08-20T07:40:51;25.40;63.80
7658;DHT22;8462;53.156;8.220;2022-08-20T07:43:19;25.30;63.80
7658;DHT22;8462;53.156;8.220;2022-08-20T07:45:47;25.20;64.60
7658;DHT22;8462;53.156;8.220;2022-08-20T07:48:14;25.10;63.90
7658;DHT22;8462;53.156;8.220;2022-08-20T07:50:43;25.00;63.40
7658;DHT22;8462;53.156;8.220;2022-08-20T07:53:12;24.90;63.30
7658;DHT22;8462;53.156;8.220;2022-08-20T07:55:39;24.90;63.60
7658;DHT22;8462;53.156;8.220;2022-08-20T07:58:08;24.90;63.50
7658;DHT22;8462;53.156;8.220;2022-08-20T08:00:39;25.00;63.20
7658;DHT22;8462;53.156;8.220;2022-08-20T08:03:06;25.00;62.70
7658;DHT22;8462;53.156;8.220;2022-08-20T08:05:36;25.10;61.80
7658;DHT22;8462;53.156;8.220;2022-08-20T08:08:07;25.10;60.50
7658;DHT22;8462;53.156;8.220;2022-08-20T08:10:35;25.00;59.60
7658;DHT22;8462;53.156;8.220;2022-08-20T08:13:06;25.00;58.90
7658;DHT22;8462;53.156;8.220;2022-08-20T08:15:35;25.00;59.00
7658;DHT22;8462;53.156;8.220;2022-08-20T08:18:08;25.00;58.70
7658;DHT22;8462;53.156;8.220;2022-08-20T08:20:39;25.00;58.50
7658;DHT22;8462;53.156;8.220;2022-08-20T08:23:09;25.00;57.20
7658;DHT22;8462;53.156;8.220;2022-08-20T08:25:37;25.10;56.70
7658;DHT22;8462;53.156;8.220;2022-08-20T08:28:04;25.20;56.60
7658;DHT22;8462;53.156;8.220;2022-08-20T08:30:31;25.20;55.40
7658;DHT22;8462;53.156;8.220;2022-08-20T08:32:58;25.20;56.80
7658;DHT22;8462;53.156;8.220;2022-08-20T08:35:42;25.30;55.30
7658;DHT22;8462;53.156;8.220;2022-08-20T08:38:12;25.20;55.30
7658;DHT22;8462;53.156;8.220;2022-08-20T08:40:39;25.20;55.40
7658;DHT22;8462;53.156;8.220;2022-08-20T08:43:07;25.30;55.60
7658;DHT22;8462;53.156;8.220;2022-08-20T08:45:39;25.30;55.70
7658;DHT22;8462;53.156;8.220;2022-08-20T08:48:09;25.50;55.90
7658;DHT22;8462;53.156;8.220;2022-08-20T08:50:36;25.80;55.50
7658;DHT22;8462;53.156;8.220;2022-08-20T08:53:07;26.00;54.40
7658;DHT22;8462;53.156;8.220;2022-08-20T08:55:37;26.30;53.70
7658;DHT22;8462;53.156;8.220;2022-08-20T08:58:05;26.20;53.10
7658;DHT22;8462;53.156;8.220;2022-08-20T09:00:35;26.30;52.60
7658;DHT22;8462;53.156;8.220;2022-08-20T09:03:05;26.20;52.80
7658;DHT22;8462;53.156;8.220;2022-08-20T09:05:36;26.20;52.20
7658;DHT22;8462;53.156;8.220;2022-08-20T09:08:07;26.30;52.10
7658;DHT22;8462;53.156;8.220;2022-08-20T09:10:37;26.30;51.70
7658;DHT22;8462;53.156;8.220;2022-08-20T09:13:05;26.40;51.70
7658;DHT22;8462;53.156;8.220;2022-08-20T09:15:32;26.50;50.10
7658;DHT22;8462;53.156;8.220;2022-08-20T09:17:59;26.40;50.10
7658;DHT22;8462;53.156;8.220;2022-08-20T09:20:26;26.50;50.40
7658;DHT22;8462;53.156;8.220;2022-08-20T09:22:53;26.60;50.60
7658;DHT22;8462;53.156;8.220;2022-08-20T09:25:20;26.70;50.80
7658;DHT22;8462;53.156;8.220;2022-08-20T09:27:48;26.80;50.50
7658;DHT22;8462;53.156;8.220;2022-08-20T09:30:16;27.00;48.60
7658;DHT22;8462;53.156;8.220;2022-08-20T09:32:43;27.10;48.70
7658;DHT22;8462;53.156;8.220;2022-08-20T09:35:10;27.00;49.20
7658;DHT22;8462;53.156;8.220;2022-08-20T09:37:38;27.10;48.70
7658;DHT22;8462;53.156;8.220;2022-08-20T09:40:06;27.10;47.20
7658;DHT22;8462;53.156;8.220;2022-08-20T09:42:36;26.90;47.30
7658;DHT22;8462;53.156;8.220;2022-08-20T09:45:05;26.70;47.90
7658;DHT22;8462;53.156;8.220;2022-08-20T09:47:33;26.80;48.20
7658;DHT22;8462;53.156;8.220;2022-08-20T09:49:59;27.00;48.20
7658;DHT22;8462;53.156;8.220;2022-08-20T09:52:28;27.20;47.40
7658;DHT22;8462;53.156;8.220;2022-08-20T09:54:59;27.20;47.30
7658;DHT22;8462;53.156;8.220;2022-08-20T09:57:27;27.40;47.80
7658;DHT22;8462;53.156;8.220;2022-08-20T09:59:58;27.40;46.10
7658;DHT22;8462;53.156;8.220;2022-08-20T10:02:26;27.30;45.90
7658;DHT22;8462;53.156;8.220;2022-08-20T10:04:53;27.20;44.90
7658;DHT22;8462;53.156;8.220;2022-08-20T10:07:20;27.20;45.00
7658;DHT22;8462;53.156;8.220;2022-08-20T10:09:47;27.30;45.80
7658;DHT22;8462;53.156;8.220;2022-08-20T10:12:14;27.30;45.80
7658;DHT22;8462;53.156;8.220;2022-08-20T10:14:41;27.20;45.30
7658;DHT22;8462;53.156;8.220;2022-08-20T10:17:08;27.20;45.30
7658;DHT22;8462;53.156;8.220;2022-08-20T10:19:36;27.10;44.90
7658;DHT22;8462;53.156;8.220;2022-08-20T10:22:04;27.00;45.40
7658;DHT22;8462;53.156;8.220;2022-08-20T10:24:31;27.00;45.40
7658;DHT22;8462;53.156;8.220;2022-08-20T10:26:59;27.10;45.00
7658;DHT22;8462;53.156;8.220;2022-08-20T10:29:28;27.20;45.90
7658;DHT22;8462;53.156;8.220;2022-08-20T10:31:55;27.60;45.70
7658;DHT22;8462;53.156;8.220;2022-08-20T10:34:22;27.90;44.40
7658;DHT22;8462;53.156;8.220;2022-08-20T10:36:51;28.10;44.60
7658;DHT22;8462;53.156;8.220;2022-08-20T10:39:17;28.30;44.00
7658;DHT22;8462;53.156;8.220;2022-08-20T10:41:44;28.30;43.80
7658;DHT22;8462;53.156;8.220;2022-08-20T10:44:11;28.40;44.00
7658;DHT22;8462;53.156;8.220;2022-08-20T10:46:38;28.30;42.30
7658;DHT22;8462;53.156;8.220;2022-08-20T10:49:05;28.10;42.90
7658;DHT22;8462;53.156;8.220;2022-08-20T10:51:32;28.10;43.50
7658;DHT22;8462;53.156;8.220;2022-08-20T10:54:00;28.00;43.20
7658;DHT22;8462;53.156;8.220;2022-08-20T10:56:27;28.00;43.10
7658;DHT22;8462;53.156;8.220;2022-08-20T10:58:54;28.00;43.40
7658;DHT22;8462;53.156;8.220;2022-08-20T11:01:21;28.00;43.20
7658;DHT22;8462;53.156;8.220;2022-08-20T11:03:48;27.90;43.00
7658;DHT22;8462;53.156;8.220;2022-08-20T11:06:15;27.80;44.00
7658;DHT22;8462;53.156;8.220;2022-08-20T11:08:42;27.60;43.10
7658;DHT22;8462;53.156;8.220;2022-08-20T11:11:10;27.50;44.50
7658;DHT22;8462;53.156;8.220;2022-08-20T11:13:37;27.40;44.80
7658;DHT22;8462;53.156;8.220;2022-08-20T11:16:04;27.50;44.70
7658;DHT22;8462;53.156;8.220;2022-08-20T11:18:31;27.50;43.90
7658;DHT22;8462;53.156;8.220;2022-08-20T11:20:58;27.60;44.70
7658;DHT22;8462;53.156;8.220;2022-08-20T11:23:26;27.90;44.90
7658;DHT22;8462;53.156;8.220;2022-08-20T11:25:53;27.90;43.20
7658;DHT22;8462;53.156;8.220;2022-08-20T11:28:21;27.80;43.50
7658;DHT22;8462;53.156;8.220;2022-08-20T11:30:48;27.70;42.80
7658;DHT22;8462;53.156;8.220;2022-08-20T11:33:21;27.80;42.70
7658;DHT22;8462;53.156;8.220;2022-08-20T11:35:48;27.80;43.00
7658;DHT22;8462;53.156;8.220;2022-08-20T11:38:15;27.90;43.40
7658;DHT22;8462;53.156;8.220;2022-08-20T11:40:42;28.00;43.10
7658;DHT22;8462;53.156;8.220;2022-08-20T11:43:11;28.00;43.80
7658;DHT22;8462;53.156;8.220;2022-08-20T11:45:39;28.00;43.70
7658;DHT22;8462;53.156;8.220;2022-08-20T11:48:06;28.10;43.00
7658;DHT22;8462;53.156;8.220;2022-08-20T11:50:33;28.10;42.90
7658;DHT22;8462;53.156;8.220;2022-08-20T11:53:00;28.10;43.60
7658;DHT22;8462;53.156;8.220;2022-08-20T11:55:27;28.20;43.40
7658;DHT22;8462;53.156;8.220;2022-08-20T11:57:54;28.20;43.20
7658;DHT22;8462;53.156;8.220;2022-08-20T12:00:22;28.00;43.20
7658;DHT22;8462;53.156;8.220;2022-08-20T12:02:50;27.70;43.40
7658;DHT22;8462;53.156;8.220;2022-08-20T12:05:18;27.50;43.40
7658;DHT22;8462;53.156;8.220;2022-08-20T12:07:46;27.20;43.50
7658;DHT22;8462;53.156;8.220;2022-08-20T12:10:13;27.00;44.10
7658;DHT22;8462;53.156;8.220;2022-08-20T12:12:40;26.90;44.00
7658;DHT22;8462;53.156;8.220;2022-08-20T12:15:08;26.80;43.40
7658;DHT22;8462;53.156;8.220;2022-08-20T12:17:36;26.80;44.20
7658;DHT22;8462;53.156;8.220;2022-08-20T12:20:08;26.80;43.80
7658;DHT22;8462;53.156;8.220;2022-08-20T12:22:35;26.90;44.00
7658;DHT22;8462;53.156;8.220;2022-08-20T12:25:03;27.00;43.90
7658;DHT22;8462;53.156;8.220;2022-08-20T12:27:31;27.00;44.90
7658;DHT22;8462;53.156;8.220;2022-08-20T12:30:01;27.10;45.30
7658;DHT22;8462;53.156;8.220;2022-08-20T12:32:30;27.20;45.00
7658;DHT22;8462;53.156;8.220;2022-08-20T12:34:58;27.50;45.00
7658;DHT22;8462;53.156;8.220;2022-08-20T12:37:28;27.50;44.50
7658;DHT22;8462;53.156;8.220;2022-08-20T12:39:57;27.70;44.10
7658;DHT22;8462;53.156;8.220;2022-08-20T12:42:25;27.70;43.60
7658;DHT22;8462;53.156;8.220;2022-08-20T12:44:52;27.80;44.20
7658;DHT22;8462;53.156;8.220;2022-08-20T12:47:22;28.00;43.80
7658;DHT22;8462;53.156;8.220;2022-08-20T12:49:52;27.90;43.10
7658;DHT22;8462;53.156;8.220;2022-08-20T12:52:20;27.90;42.80
7658;DHT22;8462;53.156;8.220;2022-08-20T12:54:49;27.80;42.30
7658;DHT22;8462;53.156;8.220;2022-08-20T12:57:23;27.80;42.80
7658;DHT22;8462;53.156;8.220;2022-08-20T12:59:51;27.80;43.10
7658;DHT22;8462;53.156;8.220;2022-08-20T13:02:17;27.90;43.40
7658;DHT22;8462;53.156;8.220;2022-08-20T13:04:44;28.00;42.80
7658;DHT22;8462;53.156;8.220;2022-08-20T13:07:12;28.00;43.10
7658;DHT22;8462;53.156;8.220;2022-08-20T13:09:40;28.10;43.40
7658;DHT22;8462;53.156;8.220;2022-08-20T13:12:09;28.00;43.60
7658;DHT22;8462;53.156;8.220;2022-08-20T13:14:37;27.70;43.10
7658;DHT22;8462;53.156;8.220;2022-08-20T13:17:04;27.50;43.10
7658;DHT22;8462;53.156;8.220;2022-08-20T13:19:33;27.20;43.70
7658;DHT22;8462;53.156;8.220;2022-08-20T13:22:00;27.00;42.70
7658;DHT22;8462;53.156;8.220;2022-08-20T13:24:27;26.80;43.30
7658;DHT22;8462;53.156;8.220;2022-08-20T13:27:03;26.60;43.80
7658;DHT22;8462;53.156;8.220;2022-08-20T13:29:31;26.50;43.10
7658;DHT22;8462;53.156;8.220;2022-08-20T13:31:58;26.40;43.20
7658;DHT22;8462;53.156;8.220;2022-08-20T13:34:25;26.40;43.50
7658;DHT22;8462;53.156;8.220;2022-08-20T13:36:52;26.40;43.90
7658;DHT22;8462;53.156;8.220;2022-08-20T13:39:20;26.40;43.70
7658;DHT22;8462;53.156;8.220;2022-08-20T13:41:47;26.40;43.50
7658;DHT22;8462;53.156;8.220;2022-08-20T13:44:15;26.50;43.30
7658;DHT22;8462;53.156;8.220;2022-08-20T13:46:44;26.70;43.70
7658;DHT22;8462;53.156;8.220;2022-08-20T13:49:12;26.80;42.50
7658;DHT22;8462;53.156;8.220;2022-08-20T13:51:39;26.90;42.60
7658;DHT22;8462;53.156;8.220;2022-08-20T13:54:06;27.00;42.20
7658;DHT22;8462;53.156;8.220;2022-08-20T13:56:33;27.10;41.70
7658;DHT22;8462;53.156;8.220;2022-08-20T13:59:00;27.20;41.40
7658;DHT22;8462;53.156;8.220;2022-08-20T14:01:27;27.30;41.60
7658;DHT22;8462;53.156;8.220;2022-08-20T14:03:55;27.40;41.40
7658;DHT22;8462;53.156;8.220;2022-08-20T14:06:22;27.30;41.40
7658;DHT22;8462;53.156;8.220;2022-08-20T14:08:49;27.10;41.00
7658;DHT22;8462;53.156;8.220;2022-08-20T14:11:16;27.00;41.40
7658;DHT22;8462;53.156;8.220;2022-08-20T14:13:44;26.90;42.10
7658;DHT22;8462;53.156;8.220;2022-08-20T14:16:10;26.90;42.10
7658;DHT22;8462;53.156;8.220;2022-08-20T14:18:37;26.90;41.80
7658;DHT22;8462;53.156;8.220;2022-08-20T14:21:06;26.80;41.60
7658;DHT22;8462;53.156;8.220;2022-08-20T14:23:33;26.70;42.30
7658;DHT22;8462;53.156;8.220;2022-08-20T14:25:59;26.70;42.30
7658;DHT22;8462;53.156;8.220;2022-08-20T14:28:26;26.70;42.10
7658;DHT22;8462;53.156;8.220;2022-08-20T14:30:53;26.70;42.40
7658;DHT22;8462;53.156;8.220;2022-08-20T14:33:21;26.80;43.20
7658;DHT22;8462;53.156;8.220;2022-08-20T14:35:48;26.80;42.10
7658;DHT22;8462;53.156;8.220;2022-08-20T14:38:16;26.70;42.00
7658;DHT22;8462;53.156;8.220;2022-08-20T14:40:43;26.70;42.00
7658;DHT22;8462;53.156;8.220;2022-08-20T14:43:10;26.70;42.20
7658;DHT22;8462;53.156;8.220;2022-08-20T14:45:37;26.50;42.10
7658;DHT22;8462;53.156;8.220;2022-08-20T14:48:06;26.50;42.40
7658;DHT22;8462;53.156;8.220;2022-08-20T14:50:34;26.50;42.50
7658;DHT22;8462;53.156;8.220;2022-08-20T14:53:01;26.60;42.20
7658;DHT22;8462;53.156;8.220;2022-08-20T14:55:31;26.70;42.20
7658;DHT22;8462;53.156;8.220;2022-08-20T14:57:58;26.70;42.80
7658;DHT22;8462;53.156;8.220;2022-08-20T15:00:28;26.70;42.30
7658;DHT22;8462;53.156;8.220;2022-08-20T15:02:56;26.60;42.80
7658;DHT22;8462;53.156;8.220;2022-08-20T15:05:23;26.60;42.80
7658;DHT22;8462;53.156;8.220;2022-08-20T15:07:50;26.50;42.30
7658;DHT22;8462;53.156;8.220;2022-08-20T15:10:20;26.50;42.40
7658;DHT22;8462;53.156;8.220;2022-08-20T15:12:49;26.50;42.90
7658;DHT22;8462;53.156;8.220;2022-08-20T15:15:17;26.50;42.20
7658;DHT22;8462;53.156;8.220;2022-08-20T15:17:45;26.70;42.30
7658;DHT22;8462;53.156;8.220;2022-08-20T15:20:14;26.70;41.70
7658;DHT22;8462;53.156;8.220;2022-08-20T15:22:41;26.60;42.10
7658;DHT22;8462;53.156;8.220;2022-08-20T15:25:11;26.70;42.50
7658;DHT22;8462;53.156;8.220;2022-08-20T15:27:38;26.80;42.00
7658;DHT22;8462;53.156;8.220;2022-08-20T15:30:10;26.90;41.90
7658;DHT22;8462;53.156;8.220;2022-08-20T15:32:38;26.90;42.60
7658;DHT22;8462;53.156;8.220;2022-08-20T15:35:06;26.90;42.70
7658;DHT22;8462;53.156;8.220;2022-08-20T15:37:38;26.70;42.10
7658;DHT22;8462;53.156;8.220;2022-08-20T15:40:06;26.70;42.80
7658;DHT22;8462;53.156;8.220;2022-08-20T15:42:35;26.60;42.80
7658;DHT22;8462;53.156;8.220;2022-08-20T15:45:02;26.50;42.80
7658;DHT22;8462;53.156;8.220;2022-08-20T15:47:33;26.50;43.70
7658;DHT22;8462;53.156;8.220;2022-08-20T15:50:05;26.40;44.20
7658;DHT22;8462;53.156;8.220;2022-08-20T15:52:37;26.40;44.50
7658;DHT22;8462;53.156;8.220;2022-08-20T15:55:06;26.30;44.20
7658;DHT22;8462;53.156;8.220;2022-08-20T15:57:44;26.30;44.40
7658;DHT22;8462;53.156;8.220;2022-08-20T16:00:16;26.20;44.60
7658;DHT22;8462;53.156;8.220;2022-08-20T16:03:00;26.10;44.60
7658;DHT22;8462;53.156;8.220;2022-08-20T16:05:41;26.10;44.90
7658;DHT22;8462;53.156;8.220;2022-08-20T16:08:19;26.00;45.20
7658;DHT22;8462;53.156;8.220;2022-08-20T16:10:55;25.90;45.30